Latest Weather Observations for Lameroo AWS

IDS60801

Issued at 11:31 pm CDT Saturday 6 February 2016 (issued every 30 minutes, with the page automatically refreshed every 10 minutes)

About weather observations | Map of weather stations | Latest weather observations for SA | Other Formats
Station Details ID: 025562 Name: AUSTIN PLAINS Lat: -35.38 Lon: 140.54 Height: 110.08 m
Data from the previous 72 hours. | See also: Recent months at Lameroo AWS
Date/Time
CDT
Temp
°C
App
Temp
°C
Dew
Point
Rel
Hum
%
Delta-T
°C
Wind Press
QNH
hPa
Press
MSL
hPa
Rain
since 9 am
mm
Dir
 
Spd
km/h
Gust
km/h
Spd
kts
Gust
kts
06/11:30pm 21.9 20.5 11.0 50 6.0 SW 9 15 5 8 1015.4 1014.9 0.0
06/11:00pm 23.1 19.8 10.9 46 6.8 S 19 22 10 12 1015.3 1014.8 0.0
06/10:30pm 23.9 20.5 10.6 43 7.4 SSW 19 24 10 13 1015.0 1014.5 0.0
06/10:00pm 25.0 20.7 9.3 37 8.6 SSW 22 28 12 15 1014.6 1014.1 0.0
06/09:30pm 25.8 22.0 9.2 35 9.1 SSW 19 24 10 13 1014.2 1013.7 0.0
06/09:00pm 27.1 23.0 8.5 31 10.2 SSW 20 24 11 13 1013.8 1013.3 0.0
06/08:30pm 28.5 22.9 8.7 29 10.9 SW 28 32 15 17 1013.1 1012.7 0.0
06/08:00pm 29.7 23.7 8.7 27 11.7 SSW 30 41 16 22 1012.7 1012.3 0.0
06/07:30pm 31.4 24.4 8.4 24 12.8 SW 35 46 19 25 1012.0 1011.6 0.0
06/07:26pm 31.9 26.3 8.8 24 13.0 SW 28 46 15 25 1011.9 1011.5 0.0
06/07:00pm 33.9 30.8 3.7 15 15.8 NE 9 13 5 7 1011.7 1011.3 0.0
06/06:30pm 34.0 31.5 3.7 15 15.9 SSW 6 11 3 6 1011.7 1011.3 0.0
06/06:00pm 34.7 31.4 4.3 15 16.1 SW 11 15 6 8 1011.6 1011.2 0.0
06/05:30pm 34.2 31.5 3.9 15 15.9 SSW 7 13 4 7 1011.7 1011.3 0.0
06/05:00pm 33.8 31.6 3.6 15 15.8 S 4 9 2 5 1011.9 1011.5 0.0
06/04:30pm 33.8 30.3 3.6 15 15.8 SSE 11 20 6 11 1012.0 1011.6 0.0
06/04:00pm 34.2 31.5 3.9 15 15.9 NE 7 17 4 9 1012.4 1012.0 0.0
06/03:30pm 33.5 30.9 3.3 15 15.7 N 6 13 3 7 1012.6 1012.2 0.0
06/03:00pm 33.4 30.4 4.2 16 15.4 SE 9 19 5 10 1013.1 1012.7 0.0
06/02:30pm 32.9 29.8 3.8 16 15.2 SSE 9 19 5 10 1013.4 1013.0 0.0
06/02:00pm 32.7 30.3 5.3 18 14.6 SSE 7 15 4 8 1013.9 1013.4 0.0
06/01:30pm 32.8 29.3 5.4 18 14.6 SE 13 22 7 12 1014.3 1013.8 0.0
06/01:00pm 32.1 29.4 5.6 19 14.2 NE 9 19 5 10 1014.8 1014.3 0.0
06/12:30pm 31.2 27.7 5.6 20 13.6 ESE 13 22 7 12 1015.1 1014.6 0.0
06/12:00pm 30.9 28.7 6.0 21 13.3 NNW 7 15 4 8 1015.4 1014.9 0.0
06/11:30am 30.8 27.4 6.0 21 13.2 ENE 13 20 7 11 1015.6 1015.1 0.0
06/11:00am 30.1 26.8 7.9 25 12.2 NE 15 24 8 13 1015.8 1015.3 0.0
06/10:30am 28.8 26.0 8.5 28 11.2 NE 13 20 7 11 1015.9 1015.4 0.0
06/10:00am 27.6 24.4 8.5 30 10.5 NE 15 20 8 11 1016.0 1015.5 0.0
06/09:30am 26.5 22.7 8.9 33 9.6 NE 19 24 10 13 1016.1 1015.6 0.0
06/09:00am 25.4 21.5 8.8 35 9.0 NE 19 22 10 12 1016.1 1015.6 0.0
06/08:30am 23.4 19.9 10.1 43 7.3 ENE 19 22 10 12 1015.9 1015.4 0.0
06/08:00am 21.3 19.2 11.1 52 5.7 ENE 13 17 7 9 1015.7 1015.2 0.0
06/07:30am 18.8 17.2 11.6 63 4.0 E 11 13 6 7 1015.3 1014.8 0.0
06/07:00am 16.6 14.5 11.1 70 3.0 E 13 15 7 8 1015.0 1014.5 0.0
06/06:30am 16.7 14.1 10.8 68 3.2 E 15 17 8 9 1014.6 1014.1 0.0
06/06:00am 17.1 14.5 10.7 66 3.4 E 15 17 8 9 1014.4 1013.9 0.0
06/05:30am 17.1 14.9 10.9 67 3.3 ESE 13 17 7 9 1014.1 1013.6 0.0
06/05:00am 16.5 14.4 11.0 70 3.0 ESE 13 15 7 8 1013.9 1013.4 0.0
06/04:30am 16.5 14.5 11.4 72 2.8 SE 13 13 7 7 1013.9 1013.4 0.0
06/04:00am 16.3 15.2 12.1 76 2.3 SE 9 13 5 7 1013.9 1013.4 0.0
06/03:30am 16.6 16.2 12.9 79 2.1 S 7 9 4 5 1014.1 1013.6 0.0
06/03:00am 16.9 15.4 13.2 79 2.1 S 13 17 7 9 1014.1 1013.6 0.0
06/02:30am 16.8 14.8 12.7 77 2.3 SW 15 19 8 10 1014.5 1014.0 0.0
06/02:00am 17.7 16.9 12.8 73 2.7 SW 9 9 5 5 1014.4 1013.9 0.0
06/01:30am 18.2 16.7 13.1 72 2.9 SSW 13 15 7 8 1014.6 1014.1 0.0
06/01:00am 18.8 17.7 13.0 69 3.3 SSW 11 15 6 8 1014.7 1014.2 0.0
06/12:30am 19.6 17.7 13.1 66 3.7 SSW 15 17 8 9 1014.8 1014.3 0.0
06/12:00am 20.7 18.9 13.2 62 4.3 S 15 17 8 9 1014.9 1014.4 0.0
 
Date/Time
CDT
Temp
°C
App
Temp
°C
Dew
Point
Rel
Hum
%
Delta-T
°C
Wind Press
QNH
hPa
Press
MSL
hPa
Rain
since 9 am
mm
Dir
 
Spd
km/h
Gust
km/h
Spd
kts
Gust
kts
05/11:30pm 21.1 19.2 13.0 60 4.6 S 15 19 8 10 1015.1 1014.6 0.0
05/11:00pm 21.8 19.5 12.9 57 5.1 S 17 20 9 11 1015.2 1014.7 0.0
05/10:30pm 22.4 19.4 12.6 54 5.6 S 20 24 11 13 1015.3 1014.8 0.0
05/10:00pm 23.2 19.7 12.2 50 6.3 S 22 28 12 15 1015.1 1014.6 0.0
05/09:30pm 23.6 19.7 12.0 48 6.6 SSW 24 30 13 16 1014.8 1014.3 0.0
05/09:00pm 24.8 20.0 11.7 44 7.5 SSW 28 33 15 18 1014.4 1013.9 0.0
05/08:30pm 28.3 24.5 9.1 30 10.7 S 19 22 10 12 1014.0 1013.5 0.0
05/08:00pm 29.7 25.8 9.3 28 11.4 S 20 24 11 13 1013.5 1013.1 0.0
05/07:30pm 30.9 26.9 9.2 26 12.2 SSE 20 28 11 15 1013.2 1012.8 0.0
05/07:00pm 31.8 28.3 8.7 24 13.0 SSW 17 22 9 12 1013.0 1012.6 0.0
05/06:30pm 32.5 30.0 6.7 20 14.1 SE 9 17 5 9 1012.9 1012.5 0.0
05/06:00pm 32.4 29.5 6.6 20 14.0 ESE 11 17 6 9 1012.9 1012.5 0.0
05/05:30pm 32.3 29.8 6.5 20 14.0 ESE 9 17 5 9 1013.0 1012.6 0.0
05/05:00pm 32.2 29.1 7.1 21 13.7 SSE 13 26 7 14 1013.2 1012.8 0.0
05/04:30pm 31.8 29.8 8.7 24 13.0 ENE 9 20 5 11 1013.5 1013.1 0.0
05/04:00pm 31.5 29.6 9.1 25 12.6 E 9 17 5 9 1014.1 1013.6 0.0
05/03:30pm 30.6 29.4 9.5 27 11.9 SSW 6 13 3 7 1014.7 1014.2 0.0
05/03:00pm 30.3 29.0 9.8 28 11.6 ENE 7 20 4 11 1015.1 1014.6 0.0
05/02:30pm 29.8 28.8 10.4 30 11.1 SSE 6 15 3 8 1015.6 1015.1 0.0
05/02:00pm 29.4 28.0 11.0 32 10.6 SE 9 26 5 14 1015.9 1015.4 0.0
05/01:30pm 28.2 26.9 11.3 35 9.7 E 9 17 5 9 1016.4 1015.9 0.0
05/01:00pm 26.4 25.4 10.9 38 8.8 ESE 7 17 4 9 1016.9 1016.5 0.0
05/12:30pm 26.0 25.0 11.0 39 8.5 ESE 7 20 4 11 1017.3 1016.9 0.0
05/12:00pm 24.8 23.4 11.0 42 7.8 ESE 9 17 5 9 1017.6 1017.2 0.0
05/11:30am 23.4 21.3 11.1 46 6.9 SE 13 22 7 12 1018.0 1017.6 0.0
05/11:00am 22.8 20.0 11.2 48 6.5 E 17 26 9 14 1018.3 1017.9 0.0
05/10:30am 20.9 17.5 10.4 51 5.7 ESE 19 24 10 13 1018.4 1018.0 0.0
05/10:00am 20.3 16.8 11.0 55 5.1 ESE 20 28 11 15 1018.6 1018.2 0.0
05/09:30am 19.1 14.8 10.6 58 4.6 ESE 24 30 13 16 1018.5 1018.1 0.0
05/09:00am 17.2 13.2 10.3 64 3.7 SE 22 28 12 15 1018.7 1018.3 0.0
05/08:30am 15.7 11.2 10.0 69 3.0 SE 24 32 13 17 1018.7 1018.3 0.0
05/08:00am 14.0 10.4 9.8 76 2.2 SE 19 26 10 14 1018.6 1018.2 0.0
05/07:30am 12.5 9.2 9.7 83 1.4 SSE 17 20 9 11 1018.5 1018.1 0.0
05/07:00am 11.8 8.5 9.5 86 1.2 S 17 22 9 12 1018.3 1017.9 0.0
05/06:30am 11.6 8.6 9.3 86 1.2 SSE 15 19 8 10 1017.9 1017.5 0.0
05/06:00am 11.8 8.5 9.4 85 1.2 SSE 17 22 9 12 1017.6 1017.2 0.0
05/05:30am 12.1 8.2 9.3 83 1.4 SSE 20 28 11 15 1017.2 1016.8 0.0
05/05:00am 12.3 8.4 9.3 82 1.5 SSE 20 28 11 15 1017.0 1016.6 0.0
05/04:30am 12.6 8.3 9.2 80 1.7 SSE 22 28 12 15 1016.9 1016.5 0.0
05/04:00am 12.8 8.4 9.1 78 1.9 SE 22 28 12 15 1016.8 1016.4 0.0
05/03:30am 12.9 9.0 8.8 76 2.1 SSE 19 22 10 12 1016.7 1016.3 0.0
05/03:00am 13.8 8.6 9.0 73 2.4 SSE 26 33 14 18 1016.9 1016.5 0.0
05/02:30am 14.4 9.6 8.8 69 2.8 SSE 24 32 13 17 1017.0 1016.6 0.0
05/02:00am 15.1 10.3 9.0 67 3.1 SSE 24 30 13 16 1017.0 1016.6 0.0
05/01:30am 15.9 11.1 8.9 63 3.6 SSE 24 33 13 18 1017.1 1016.7 0.0
05/01:00am 16.6 11.3 8.6 59 4.1 SSE 26 33 14 18 1017.2 1016.8 0.0
05/12:30am 17.4 12.5 8.5 56 4.6 SSE 24 33 13 18 1017.4 1017.0 0.0
05/12:00am 18.3 12.6 8.3 52 5.2 SSE 28 35 15 19 1017.5 1017.1 0.0
 
Date/Time
CDT
Temp
°C
App
Temp
°C
Dew
Point
Rel
Hum
%
Delta-T
°C
Wind Press
QNH
hPa
Press
MSL
hPa
Rain
since 9 am
mm
Dir
 
Spd
km/h
Gust
km/h
Spd
kts
Gust
kts
04/11:30pm 19.0 14.0 8.1 49 5.6 SSE 24 33 13 18 1017.6 1017.2 0.0
04/11:00pm 20.0 14.1 7.7 45 6.4 SSE 28 37 15 20 1017.5 1017.1 0.0
04/10:30pm 20.9 15.3 7.2 41 7.0 SSE 26 35 14 19 1017.4 1017.0 0.0
04/10:00pm 21.7 16.0 6.8 38 7.6 SSE 26 32 14 17 1017.3 1016.9 0.0
04/09:30pm 22.3 17.7 6.5 36 8.1 SSE 20 24 11 13 1017.1 1016.7 0.0
04/09:00pm 23.2 18.1 6.1 33 8.7 SSE 22 28 12 15 1016.7 1016.3 0.0
04/08:30pm 24.3 18.7 5.6 30 9.5 SSE 24 33 13 18 1016.4 1015.9 0.0
04/08:00pm 25.6 19.2 5.2 27 10.4 SSE 28 37 15 20 1016.1 1015.6 0.0
04/07:30pm 26.7 19.5 3.2 22 11.7 SSE 30 39 16 21 1015.8 1015.3 0.0
04/07:00pm 27.4 20.0 3.8 22 11.9 SSE 32 43 17 23 1015.5 1015.0 0.0
04/06:30pm 28.1 20.6 3.7 21 12.3 SSE 32 43 17 23 1015.3 1014.8 0.0
04/06:00pm 28.3 21.0 4.6 22 12.2 SSE 32 43 17 23 1015.2 1014.7 0.0
04/05:30pm 28.7 22.2 4.9 22 12.3 SSE 28 43 15 23 1015.2 1014.7 0.0
04/05:00pm 28.4 21.1 4.6 22 12.2 SSE 32 43 17 23 1015.5 1015.0 0.0
04/04:30pm 27.8 21.1 5.4 24 11.6 SSE 30 44 16 24 1015.7 1015.2 0.0
04/04:00pm 28.3 21.8 6.4 25 11.6 S 30 41 16 22 1015.8 1015.3 0.0
04/03:33pm 27.2 21.2 7.1 28 10.7 S 28 46 15 25 1016.2 1015.7 0.0
04/03:30pm 27.5 21.1 6.8 27 11.0 S 30 46 16 25 1016.2 1015.7 0.0
04/03:00pm 26.3 20.3 6.9 29 10.2 SSE 28 41 15 22 1016.5 1016.1 0.0
04/02:30pm 26.6 20.2 7.1 29 10.3 S 30 41 16 22 1016.9 1016.5 0.0
04/02:00pm 25.9 20.0 7.5 31 9.8 S 28 44 15 24 1017.1 1016.7 0.0
04/01:43pm 25.5 19.5 7.1 31 9.7 SSE 28 57 15 31 1017.6 1017.2 0.0
04/01:30pm 24.6 18.3 7.3 33 9.1 S 30 43 16 23 1017.6 1017.2 0.0
04/01:00pm 24.3 19.0 8.3 36 8.6 S 26 43 14 23 1018.1 1017.7 0.0
04/12:30pm 23.7 18.1 8.6 38 8.1 S 28 39 15 21 1018.3 1017.9 0.0
04/12:00pm 22.2 16.5 8.3 41 7.3 S 28 37 15 20 1018.8 1018.4 0.0
04/11:30am 21.0 15.0 8.6 45 6.5 SSE 30 39 16 21 1019.0 1018.6 0.0
04/11:00am 20.4 14.9 9.3 49 5.9 S 28 39 15 21 1019.5 1019.1 0.0
04/10:30am 19.4 13.6 9.6 53 5.2 SSE 30 43 16 23 1019.6 1019.2 0.0
04/10:00am 18.4 12.2 9.2 55 4.8 SSE 32 41 17 22 1019.5 1019.1 0.0
04/09:30am 17.8 11.6 9.4 58 4.4 SSE 32 41 17 22 1019.7 1019.3 0.0
04/09:00am 16.5 10.0 9.0 61 3.9 SSE 33 46 18 25 1019.6 1019.2 0.0
04/08:30am 15.4 10.4 9.5 68 3.1 SSE 26 32 14 17 1019.7 1019.3 0.0
04/08:00am 13.6 8.9 9.3 75 2.2 S 24 32 13 17 1019.3 1018.9 0.0
04/07:30am 12.1 7.7 9.1 82 1.5 S 22 28 12 15 1019.1 1018.7 0.0
04/07:00am 11.2 8.5 8.9 86 1.1 SSW 13 17 7 9 1019.1 1018.7 0.0
04/06:30am 10.9 7.8 8.7 86 1.1 SSW 15 19 8 10 1018.7 1018.3 0.0
04/06:00am 11.2 7.3 8.8 85 1.2 SSW 19 22 10 12 1018.2 1017.8 0.0
04/05:30am 11.3 7.3 8.9 85 1.2 SSW 20 22 11 12 1017.9 1017.5 0.0
04/05:00am 11.4 7.5 8.8 84 1.3 SSW 19 20 10 11 1017.5 1017.1 0.0
04/04:30am 11.8 8.0 9.0 83 1.4 S 19 22 10 12 1017.3 1016.9 0.0
04/04:00am 11.9 8.4 8.9 82 1.5 SSW 17 20 9 11 1017.1 1016.7 0.0
04/03:30am 12.4 8.6 9.1 80 1.7 S 19 22 10 12 1017.0 1016.6 0.0
04/03:00am 12.8 9.0 9.1 78 1.9 S 19 24 10 13 1016.9 1016.5 0.0
04/02:30am 13.1 9.3 9.2 77 2.0 S 19 22 10 12 1016.9 1016.5 0.0
04/02:00am 13.3 9.3 9.2 76 2.1 SSE 20 26 11 14 1016.8 1016.4 0.0
04/01:30am 14.1 9.7 9.1 72 2.6 SSE 22 28 12 15 1016.8 1016.4 0.0
04/01:00am 14.6 10.3 9.2 70 2.8 SSE 22 30 12 16 1016.8 1016.4 0.0
04/12:30am 15.0 10.7 9.4 69 2.9 S 22 30 12 16 1016.9 1016.5 0.0
04/12:00am 15.4 10.7 9.3 67 3.2 SSE 24 30 13 16 1016.7 1016.3 0.0

Other Formats:

Comma delimited format used in spreadsheet applications
http://www.bom.gov.au/fwo/IDS60801/IDS60801.94690.axf

JavaScript Object Notation format (JSON) in row-major order
http://www.bom.gov.au/fwo/IDS60801/IDS60801.94690.json